sensor_id;sensor_type;location;lat;lon;timestamp;P1;durP1;ratioP1;P2;durP2;ratioP2
1136;SDS011;557;48.466;7.950;2023-08-24T00:00:01;12.40;;;11.40;;
1136;SDS011;557;48.466;7.950;2023-08-24T00:02:50;10.23;;;9.40;;
1136;SDS011;557;48.466;7.950;2023-08-24T00:05:40;10.80;;;10.00;;
1136;SDS011;557;48.466;7.950;2023-08-24T00:08:28;11.87;;;10.87;;
1136;SDS011;557;48.466;7.950;2023-08-24T00:11:15;12.70;;;11.60;;
1136;SDS011;557;48.466;7.950;2023-08-24T00:14:02;11.90;;;10.77;;
1136;SDS011;557;48.466;7.950;2023-08-24T00:16:49;11.10;;;10.20;;
1136;SDS011;557;48.466;7.950;2023-08-24T00:19:36;12.07;;;11.10;;
1136;SDS011;557;48.466;7.950;2023-08-24T00:22:25;12.77;;;11.43;;
1136;SDS011;557;48.466;7.950;2023-08-24T00:25:12;10.47;;;9.77;;
1136;SDS011;557;48.466;7.950;2023-08-24T00:28:00;10.90;;;10.10;;
1136;SDS011;557;48.466;7.950;2023-08-24T00:30:47;10.60;;;9.70;;
1136;SDS011;557;48.466;7.950;2023-08-24T00:33:35;10.80;;;10.00;;
1136;SDS011;557;48.466;7.950;2023-08-24T00:36:23;10.47;;;9.67;;
1136;SDS011;557;48.466;7.950;2023-08-24T00:39:12;11.20;;;10.30;;
1136;SDS011;557;48.466;7.950;2023-08-24T00:42:05;10.10;;;9.30;;
1136;SDS011;557;48.466;7.950;2023-08-24T00:44:54;10.83;;;9.93;;
1136;SDS011;557;48.466;7.950;2023-08-24T00:47:42;9.80;;;9.10;;
1136;SDS011;557;48.466;7.950;2023-08-24T00:50:30;10.30;;;9.40;;
1136;SDS011;557;48.466;7.950;2023-08-24T00:53:18;10.00;;;9.10;;
1136;SDS011;557;48.466;7.950;2023-08-24T00:56:07;10.00;;;9.30;;
1136;SDS011;557;48.466;7.950;2023-08-24T00:58:55;9.80;;;9.10;;
1136;SDS011;557;48.466;7.950;2023-08-24T01:01:43;10.40;;;9.60;;
1136;SDS011;557;48.466;7.950;2023-08-24T01:04:33;9.93;;;9.13;;
1136;SDS011;557;48.466;7.950;2023-08-24T01:07:20;11.60;;;10.50;;
1136;SDS011;557;48.466;7.950;2023-08-24T01:10:09;10.67;;;9.63;;
1136;SDS011;557;48.466;7.950;2023-08-24T01:13:02;10.60;;;9.70;;
1136;SDS011;557;48.466;7.950;2023-08-24T01:15:56;9.67;;;8.90;;
1136;SDS011;557;48.466;7.950;2023-08-24T01:18:50;10.60;;;9.67;;
1136;SDS011;557;48.466;7.950;2023-08-24T01:21:38;10.17;;;9.17;;
1136;SDS011;557;48.466;7.950;2023-08-24T01:24:28;10.53;;;9.70;;
1136;SDS011;557;48.466;7.950;2023-08-24T01:27:23;11.10;;;9.90;;
1136;SDS011;557;48.466;7.950;2023-08-24T01:30:11;10.30;;;9.10;;
1136;SDS011;557;48.466;7.950;2023-08-24T01:32:58;9.77;;;9.07;;
1136;SDS011;557;48.466;7.950;2023-08-24T01:35:46;9.47;;;8.77;;
1136;SDS011;557;48.466;7.950;2023-08-24T01:38:33;9.83;;;8.83;;
1136;SDS011;557;48.466;7.950;2023-08-24T01:41:22;10.10;;;9.30;;
1136;SDS011;557;48.466;7.950;2023-08-24T01:44:16;10.80;;;9.90;;
1136;SDS011;557;48.466;7.950;2023-08-24T01:47:06;11.67;;;10.47;;
1136;SDS011;557;48.466;7.950;2023-08-24T01:49:57;11.93;;;11.03;;
1136;SDS011;557;48.466;7.950;2023-08-24T01:52:59;11.20;;;10.30;;
1136;SDS011;557;48.466;7.950;2023-08-24T01:55:47;11.20;;;10.30;;
1136;SDS011;557;48.466;7.950;2023-08-24T01:58:34;11.90;;;10.80;;
1136;SDS011;557;48.466;7.950;2023-08-24T02:01:22;11.60;;;10.70;;
1136;SDS011;557;48.466;7.950;2023-08-24T02:04:10;12.03;;;11.03;;
1136;SDS011;557;48.466;7.950;2023-08-24T02:06:57;10.80;;;10.00;;
1136;SDS011;557;48.466;7.950;2023-08-24T02:09:44;11.57;;;10.67;;
1136;SDS011;557;48.466;7.950;2023-08-24T02:12:31;11.93;;;10.90;;
1136;SDS011;557;48.466;7.950;2023-08-24T02:15:18;10.53;;;9.73;;
1136;SDS011;557;48.466;7.950;2023-08-24T02:18:07;12.97;;;11.90;;
1136;SDS011;557;48.466;7.950;2023-08-24T02:20:55;13.00;;;11.83;;
1136;SDS011;557;48.466;7.950;2023-08-24T02:23:42;12.97;;;11.77;;
1136;SDS011;557;48.466;7.950;2023-08-24T02:26:29;12.63;;;11.43;;
1136;SDS011;557;48.466;7.950;2023-08-24T02:29:16;12.93;;;11.83;;
1136;SDS011;557;48.466;7.950;2023-08-24T02:32:04;11.00;;;10.20;;
1136;SDS011;557;48.466;7.950;2023-08-24T02:34:53;12.77;;;11.57;;
1136;SDS011;557;48.466;7.950;2023-08-24T02:37:40;12.50;;;11.40;;
1136;SDS011;557;48.466;7.950;2023-08-24T02:40:27;12.00;;;10.80;;
1136;SDS011;557;48.466;7.950;2023-08-24T02:43:14;12.57;;;11.43;;
1136;SDS011;557;48.466;7.950;2023-08-24T02:46:02;13.30;;;11.60;;
1136;SDS011;557;48.466;7.950;2023-08-24T02:48:49;13.20;;;12.20;;
1136;SDS011;557;48.466;7.950;2023-08-24T02:51:38;12.93;;;11.83;;
1136;SDS011;557;48.466;7.950;2023-08-24T02:54:26;12.03;;;11.13;;
1136;SDS011;557;48.466;7.950;2023-08-24T02:57:13;11.80;;;10.80;;
1136;SDS011;557;48.466;7.950;2023-08-24T03:00:00;12.07;;;11.00;;
1136;SDS011;557;48.466;7.950;2023-08-24T03:02:49;12.83;;;11.73;;
1136;SDS011;557;48.466;7.950;2023-08-24T03:05:36;12.27;;;11.37;;
1136;SDS011;557;48.466;7.950;2023-08-24T03:08:25;11.53;;;10.53;;
1136;SDS011;557;48.466;7.950;2023-08-24T03:11:12;11.33;;;10.43;;
1136;SDS011;557;48.466;7.950;2023-08-24T03:13:59;12.23;;;11.10;;
1136;SDS011;557;48.466;7.950;2023-08-24T03:16:46;12.10;;;11.13;;
1136;SDS011;557;48.466;7.950;2023-08-24T03:19:34;11.87;;;10.97;;
1136;SDS011;557;48.466;7.950;2023-08-24T03:22:21;11.50;;;10.43;;
1136;SDS011;557;48.466;7.950;2023-08-24T03:25:09;11.30;;;10.30;;
1136;SDS011;557;48.466;7.950;2023-08-24T03:27:57;10.73;;;9.93;;
1136;SDS011;557;48.466;7.950;2023-08-24T03:30:47;10.60;;;9.70;;
1136;SDS011;557;48.466;7.950;2023-08-24T03:33:36;10.80;;;10.00;;
1136;SDS011;557;48.466;7.950;2023-08-24T03:36:23;11.13;;;10.13;;
1136;SDS011;557;48.466;7.950;2023-08-24T03:39:11;11.70;;;10.73;;
1136;SDS011;557;48.466;7.950;2023-08-24T03:42:00;11.40;;;10.40;;
1136;SDS011;557;48.466;7.950;2023-08-24T03:44:47;11.90;;;10.90;;
1136;SDS011;557;48.466;7.950;2023-08-24T03:47:35;11.20;;;10.27;;
1136;SDS011;557;48.466;7.950;2023-08-24T03:50:22;11.57;;;10.47;;
1136;SDS011;557;48.466;7.950;2023-08-24T03:53:09;11.53;;;10.53;;
1136;SDS011;557;48.466;7.950;2023-08-24T03:55:56;10.60;;;9.80;;
1136;SDS011;557;48.466;7.950;2023-08-24T03:58:45;11.70;;;10.70;;
1136;SDS011;557;48.466;7.950;2023-08-24T04:01:32;11.60;;;10.40;;
1136;SDS011;557;48.466;7.950;2023-08-24T04:04:19;11.77;;;10.67;;
1136;SDS011;557;48.466;7.950;2023-08-24T04:07:07;11.13;;;10.23;;
1136;SDS011;557;48.466;7.950;2023-08-24T04:09:54;11.30;;;10.13;;
1136;SDS011;557;48.466;7.950;2023-08-24T04:12:41;12.03;;;11.00;;
1136;SDS011;557;48.466;7.950;2023-08-24T04:15:30;11.10;;;10.20;;
1136;SDS011;557;48.466;7.950;2023-08-24T04:18:17;11.03;;;10.13;;
1136;SDS011;557;48.466;7.950;2023-08-24T04:21:04;11.60;;;10.80;;
1136;SDS011;557;48.466;7.950;2023-08-24T04:23:51;11.70;;;10.60;;
1136;SDS011;557;48.466;7.950;2023-08-24T04:26:39;13.27;;;12.00;;
1136;SDS011;557;48.466;7.950;2023-08-24T04:29:26;11.33;;;10.30;;
1136;SDS011;557;48.466;7.950;2023-08-24T04:32:15;11.33;;;10.23;;
1136;SDS011;557;48.466;7.950;2023-08-24T04:35:02;11.90;;;10.80;;
1136;SDS011;557;48.466;7.950;2023-08-24T04:37:50;13.67;;;12.47;;
1136;SDS011;557;48.466;7.950;2023-08-24T04:40:47;13.37;;;12.20;;
1136;SDS011;557;48.466;7.950;2023-08-24T04:43:36;13.20;;;12.10;;
1136;SDS011;557;48.466;7.950;2023-08-24T04:46:23;14.27;;;12.97;;
1136;SDS011;557;48.466;7.950;2023-08-24T04:49:13;16.57;;;14.80;;
1136;SDS011;557;48.466;7.950;2023-08-24T04:52:00;14.90;;;13.70;;
1136;SDS011;557;48.466;7.950;2023-08-24T04:54:48;15.43;;;14.00;;
1136;SDS011;557;48.466;7.950;2023-08-24T04:57:35;14.70;;;13.30;;
1136;SDS011;557;48.466;7.950;2023-08-24T05:00:22;16.07;;;14.67;;
1136;SDS011;557;48.466;7.950;2023-08-24T05:03:10;15.20;;;13.90;;
1136;SDS011;557;48.466;7.950;2023-08-24T05:05:58;15.43;;;14.20;;
1136;SDS011;557;48.466;7.950;2023-08-24T05:08:46;13.60;;;12.60;;
1136;SDS011;557;48.466;7.950;2023-08-24T05:11:33;14.10;;;12.70;;
1136;SDS011;557;48.466;7.950;2023-08-24T05:14:20;14.10;;;12.80;;
1136;SDS011;557;48.466;7.950;2023-08-24T05:17:08;14.93;;;13.63;;
1136;SDS011;557;48.466;7.950;2023-08-24T05:19:55;17.87;;;13.77;;
1136;SDS011;557;48.466;7.950;2023-08-24T05:22:43;15.67;;;14.17;;
1136;SDS011;557;48.466;7.950;2023-08-24T05:25:31;15.03;;;13.80;;
1136;SDS011;557;48.466;7.950;2023-08-24T05:28:19;14.60;;;13.43;;
1136;SDS011;557;48.466;7.950;2023-08-24T05:31:06;14.37;;;13.27;;
1136;SDS011;557;48.466;7.950;2023-08-24T05:33:54;14.77;;;13.50;;
1136;SDS011;557;48.466;7.950;2023-08-24T05:36:41;15.30;;;13.80;;
1136;SDS011;557;48.466;7.950;2023-08-24T05:39:29;15.90;;;14.30;;
1136;SDS011;557;48.466;7.950;2023-08-24T05:42:17;16.70;;;14.97;;
1136;SDS011;557;48.466;7.950;2023-08-24T05:45:04;16.30;;;14.90;;
1136;SDS011;557;48.466;7.950;2023-08-24T05:47:52;17.17;;;15.70;;
1136;SDS011;557;48.466;7.950;2023-08-24T05:50:42;17.00;;;15.40;;
1136;SDS011;557;48.466;7.950;2023-08-24T05:53:29;17.87;;;16.23;;
1136;SDS011;557;48.466;7.950;2023-08-24T05:56:18;18.27;;;16.63;;
1136;SDS011;557;48.466;7.950;2023-08-24T05:59:05;16.40;;;14.87;;
1136;SDS011;557;48.466;7.950;2023-08-24T06:01:53;18.00;;;16.50;;
1136;SDS011;557;48.466;7.950;2023-08-24T06:04:40;16.80;;;15.40;;
1136;SDS011;557;48.466;7.950;2023-08-24T06:07:27;19.07;;;17.17;;
1136;SDS011;557;48.466;7.950;2023-08-24T06:10:14;19.93;;;18.07;;
1136;SDS011;557;48.466;7.950;2023-08-24T06:13:03;17.53;;;15.90;;
1136;SDS011;557;48.466;7.950;2023-08-24T06:15:50;17.83;;;16.23;;
1136;SDS011;557;48.466;7.950;2023-08-24T06:18:38;16.80;;;15.47;;
1136;SDS011;557;48.466;7.950;2023-08-24T06:21:25;16.97;;;15.47;;
1136;SDS011;557;48.466;7.950;2023-08-24T06:24:12;18.57;;;17.07;;
1136;SDS011;557;48.466;7.950;2023-08-24T06:26:59;17.03;;;15.70;;
1136;SDS011;557;48.466;7.950;2023-08-24T06:29:48;15.70;;;14.50;;
1136;SDS011;557;48.466;7.950;2023-08-24T06:32:35;17.93;;;16.30;;
1136;SDS011;557;48.466;7.950;2023-08-24T06:35:23;16.87;;;15.57;;
1136;SDS011;557;48.466;7.950;2023-08-24T06:38:10;16.93;;;15.53;;
1136;SDS011;557;48.466;7.950;2023-08-24T06:40:58;17.13;;;15.73;;
1136;SDS011;557;48.466;7.950;2023-08-24T06:43:45;15.33;;;13.97;;
1136;SDS011;557;48.466;7.950;2023-08-24T06:46:34;16.10;;;14.60;;
1136;SDS011;557;48.466;7.950;2023-08-24T06:49:21;14.97;;;13.77;;
1136;SDS011;557;48.466;7.950;2023-08-24T06:52:08;16.50;;;14.87;;
1136;SDS011;557;48.466;7.950;2023-08-24T06:54:55;16.10;;;14.80;;
1136;SDS011;557;48.466;7.950;2023-08-24T06:57:47;15.83;;;14.40;;
1136;SDS011;557;48.466;7.950;2023-08-24T07:00:35;14.60;;;13.27;;
1136;SDS011;557;48.466;7.950;2023-08-24T07:03:24;15.70;;;14.50;;
1136;SDS011;557;48.466;7.950;2023-08-24T07:06:11;15.53;;;13.67;;
1136;SDS011;557;48.466;7.950;2023-08-24T07:08:58;15.80;;;14.43;;
1136;SDS011;557;48.466;7.950;2023-08-24T07:11:45;15.67;;;14.37;;
1136;SDS011;557;48.466;7.950;2023-08-24T07:14:33;15.03;;;13.83;;
1136;SDS011;557;48.466;7.950;2023-08-24T07:17:20;13.67;;;12.60;;
1136;SDS011;557;48.466;7.950;2023-08-24T07:20:09;14.47;;;13.17;;
1136;SDS011;557;48.466;7.950;2023-08-24T07:22:58;13.70;;;12.60;;
1136;SDS011;557;48.466;7.950;2023-08-24T07:25:46;15.50;;;14.30;;
1136;SDS011;557;48.466;7.950;2023-08-24T07:28:33;13.80;;;12.70;;
1136;SDS011;557;48.466;7.950;2023-08-24T07:31:21;14.27;;;13.02;;
1136;SDS011;557;48.466;7.950;2023-08-24T07:34:08;15.13;;;14.00;;
1136;SDS011;557;48.466;7.950;2023-08-24T07:36:57;15.03;;;13.63;;
1136;SDS011;557;48.466;7.950;2023-08-24T07:39:44;15.37;;;13.97;;
1136;SDS011;557;48.466;7.950;2023-08-24T07:42:35;16.50;;;15.00;;
1136;SDS011;557;48.466;7.950;2023-08-24T07:45:30;16.27;;;14.87;;
1136;SDS011;557;48.466;7.950;2023-08-24T07:48:17;16.70;;;15.37;;
1136;SDS011;557;48.466;7.950;2023-08-24T07:51:04;16.77;;;15.47;;
1136;SDS011;557;48.466;7.950;2023-08-24T07:53:53;15.05;;;13.95;;
1136;SDS011;557;48.466;7.950;2023-08-24T07:56:40;16.92;;;15.45;;
1136;SDS011;557;48.466;7.950;2023-08-24T07:59:27;15.93;;;14.63;;
1136;SDS011;557;48.466;7.950;2023-08-24T08:02:15;17.10;;;15.75;;
1136;SDS011;557;48.466;7.950;2023-08-24T08:05:02;16.38;;;15.18;;
1136;SDS011;557;48.466;7.950;2023-08-24T08:07:51;17.10;;;15.90;;
1136;SDS011;557;48.466;7.950;2023-08-24T08:10:40;18.65;;;17.15;;
1136;SDS011;557;48.466;7.950;2023-08-24T08:13:28;17.67;;;16.35;;
1136;SDS011;557;48.466;7.950;2023-08-24T08:16:16;16.52;;;15.25;;
1136;SDS011;557;48.466;7.950;2023-08-24T08:19:03;19.35;;;17.77;;
1136;SDS011;557;48.466;7.950;2023-08-24T08:21:51;19.15;;;17.75;;
1136;SDS011;557;48.466;7.950;2023-08-24T08:24:38;18.83;;;17.25;;
1136;SDS011;557;48.466;7.950;2023-08-24T08:27:27;17.48;;;16.27;;
1136;SDS011;557;48.466;7.950;2023-08-24T08:30:14;16.52;;;15.05;;
1136;SDS011;557;48.466;7.950;2023-08-24T08:33:01;17.52;;;16.00;;
1136;SDS011;557;48.466;7.950;2023-08-24T08:35:48;18.23;;;16.88;;
1136;SDS011;557;48.466;7.950;2023-08-24T08:38:36;19.67;;;18.27;;
1136;SDS011;557;48.466;7.950;2023-08-24T08:41:23;20.13;;;18.33;;
1136;SDS011;557;48.466;7.950;2023-08-24T08:44:15;19.30;;;17.80;;
1136;SDS011;557;48.466;7.950;2023-08-24T08:47:03;19.88;;;18.23;;
1136;SDS011;557;48.466;7.950;2023-08-24T08:49:53;20.27;;;18.85;;
1136;SDS011;557;48.466;7.950;2023-08-24T08:52:42;20.02;;;18.48;;
1136;SDS011;557;48.466;7.950;2023-08-24T08:55:29;19.17;;;17.80;;
1136;SDS011;557;48.466;7.950;2023-08-24T08:58:18;20.88;;;19.52;;
1136;SDS011;557;48.466;7.950;2023-08-24T09:01:07;20.23;;;18.67;;
1136;SDS011;557;48.466;7.950;2023-08-24T09:03:54;22.80;;;21.17;;
1136;SDS011;557;48.466;7.950;2023-08-24T09:06:44;20.42;;;19.02;;
1136;SDS011;557;48.466;7.950;2023-08-24T09:09:31;21.95;;;20.33;;
1136;SDS011;557;48.466;7.950;2023-08-24T09:12:20;20.45;;;19.13;;
1136;SDS011;557;48.466;7.950;2023-08-24T09:15:08;22.98;;;21.38;;
1136;SDS011;557;48.466;7.950;2023-08-24T09:17:57;24.60;;;22.08;;
1136;SDS011;557;48.466;7.950;2023-08-24T09:20:46;23.45;;;21.75;;
1136;SDS011;557;48.466;7.950;2023-08-24T09:23:34;22.90;;;21.30;;
1136;SDS011;557;48.466;7.950;2023-08-24T09:26:27;22.58;;;20.75;;
1136;SDS011;557;48.466;7.950;2023-08-24T09:29:15;22.27;;;20.88;;
1136;SDS011;557;48.466;7.950;2023-08-24T09:32:03;21.20;;;19.73;;
1136;SDS011;557;48.466;7.950;2023-08-24T09:34:54;21.88;;;20.38;;
1136;SDS011;557;48.466;7.950;2023-08-24T09:37:41;21.58;;;20.27;;
1136;SDS011;557;48.466;7.950;2023-08-24T09:40:31;21.45;;;19.85;;
1136;SDS011;557;48.466;7.950;2023-08-24T09:43:18;20.58;;;19.20;;
1136;SDS011;557;48.466;7.950;2023-08-24T09:46:06;22.38;;;20.83;;
1136;SDS011;557;48.466;7.950;2023-08-24T09:48:54;23.33;;;21.80;;
1136;SDS011;557;48.466;7.950;2023-08-24T09:51:44;23.27;;;21.63;;
1136;SDS011;557;48.466;7.950;2023-08-24T09:54:33;21.20;;;19.90;;
1136;SDS011;557;48.466;7.950;2023-08-24T09:57:23;22.70;;;21.20;;
1136;SDS011;557;48.466;7.950;2023-08-24T10:00:10;20.95;;;19.55;;
1136;SDS011;557;48.466;7.950;2023-08-24T10:03:00;22.20;;;20.60;;
1136;SDS011;557;48.466;7.950;2023-08-24T10:05:50;22.30;;;20.77;;
1136;SDS011;557;48.466;7.950;2023-08-24T10:08:42;20.77;;;19.55;;
1136;SDS011;557;48.466;7.950;2023-08-24T10:11:34;23.40;;;21.60;;
1136;SDS011;557;48.466;7.950;2023-08-24T10:14:26;22.02;;;20.50;;
1136;SDS011;557;48.466;7.950;2023-08-24T10:17:17;20.67;;;19.48;;
1136;SDS011;557;48.466;7.950;2023-08-24T10:20:06;23.33;;;21.77;;
1136;SDS011;557;48.466;7.950;2023-08-24T10:22:56;21.80;;;20.30;;
1136;SDS011;557;48.466;7.950;2023-08-24T10:25:48;22.42;;;20.98;;
1136;SDS011;557;48.466;7.950;2023-08-24T10:28:37;21.45;;;20.15;;
1136;SDS011;557;48.466;7.950;2023-08-24T10:31:26;21.67;;;20.38;;
1136;SDS011;557;48.466;7.950;2023-08-24T10:34:14;21.77;;;20.48;;
1136;SDS011;557;48.466;7.950;2023-08-24T10:37:07;22.08;;;20.77;;
1136;SDS011;557;48.466;7.950;2023-08-24T10:39:55;20.92;;;19.52;;
1136;SDS011;557;48.466;7.950;2023-08-24T10:42:44;22.25;;;20.85;;
1136;SDS011;557;48.466;7.950;2023-08-24T10:48:59;21.98;;;20.67;;
1136;SDS011;557;48.466;7.950;2023-08-24T10:51:46;21.80;;;20.50;;
1136;SDS011;557;48.466;7.950;2023-08-24T10:54:34;23.08;;;21.58;;
1136;SDS011;557;48.466;7.950;2023-08-24T10:57:36;22.75;;;21.05;;
1136;SDS011;557;48.466;7.950;2023-08-24T11:00:28;23.33;;;21.73;;
1136;SDS011;557;48.466;7.950;2023-08-24T11:03:28;22.75;;;21.25;;
1136;SDS011;557;48.466;7.950;2023-08-24T11:06:18;23.05;;;21.75;;
1136;SDS011;557;48.466;7.950;2023-08-24T11:09:07;23.73;;;22.23;;
1136;SDS011;557;48.466;7.950;2023-08-24T11:11:59;23.10;;;21.60;;
1136;SDS011;557;48.466;7.950;2023-08-24T11:14:48;22.70;;;20.95;;
1136;SDS011;557;48.466;7.950;2023-08-24T11:17:41;23.52;;;22.13;;
1136;SDS011;557;48.466;7.950;2023-08-24T11:20:28;23.95;;;22.27;;
1136;SDS011;557;48.466;7.950;2023-08-24T11:23:16;24.33;;;22.83;;
1136;SDS011;557;48.466;7.950;2023-08-24T11:26:04;24.00;;;22.60;;
1136;SDS011;557;48.466;7.950;2023-08-24T11:28:52;22.33;;;21.13;;
1136;SDS011;557;48.466;7.950;2023-08-24T11:31:40;24.02;;;22.42;;
1136;SDS011;557;48.466;7.950;2023-08-24T11:34:29;22.83;;;21.42;;
1136;SDS011;557;48.466;7.950;2023-08-24T11:37:19;23.75;;;22.25;;
1136;SDS011;557;48.466;7.950;2023-08-24T11:40:15;22.92;;;21.52;;
1136;SDS011;557;48.466;7.950;2023-08-24T11:43:04;24.45;;;22.75;;
1136;SDS011;557;48.466;7.950;2023-08-24T11:45:51;23.20;;;21.80;;
1136;SDS011;557;48.466;7.950;2023-08-24T11:48:40;22.92;;;21.38;;
1136;SDS011;557;48.466;7.950;2023-08-24T11:51:29;25.20;;;23.48;;
1136;SDS011;557;48.466;7.950;2023-08-24T11:54:18;23.08;;;21.58;;
1136;SDS011;557;48.466;7.950;2023-08-24T11:57:06;24.65;;;22.88;;
1136;SDS011;557;48.466;7.950;2023-08-24T11:59:54;24.70;;;23.20;;
1136;SDS011;557;48.466;7.950;2023-08-24T12:02:42;25.27;;;23.45;;
1136;SDS011;557;48.466;7.950;2023-08-24T12:05:30;23.77;;;22.38;;
1136;SDS011;557;48.466;7.950;2023-08-24T12:08:18;25.02;;;23.52;;
1136;SDS011;557;48.466;7.950;2023-08-24T12:11:09;23.98;;;22.48;;
1136;SDS011;557;48.466;7.950;2023-08-24T12:14:00;24.98;;;23.33;;
1136;SDS011;557;48.466;7.950;2023-08-24T12:16:47;24.70;;;23.30;;
1136;SDS011;557;48.466;7.950;2023-08-24T12:19:40;25.35;;;23.75;;
1136;SDS011;557;48.466;7.950;2023-08-24T12:22:29;26.73;;;24.77;;
1136;SDS011;557;48.466;7.950;2023-08-24T12:25:18;26.02;;;24.52;;
1136;SDS011;557;48.466;7.950;2023-08-24T12:28:08;25.48;;;23.92;;
1136;SDS011;557;48.466;7.950;2023-08-24T12:30:56;25.63;;;24.00;;
1136;SDS011;557;48.466;7.950;2023-08-24T12:33:49;25.50;;;23.60;;
1136;SDS011;557;48.466;7.950;2023-08-24T12:36:45;24.45;;;22.92;;
1136;SDS011;557;48.466;7.950;2023-08-24T12:39:34;25.88;;;24.25;;
1136;SDS011;557;48.466;7.950;2023-08-24T12:42:23;24.40;;;22.73;;
1136;SDS011;557;48.466;7.950;2023-08-24T12:45:13;23.75;;;22.33;;
1136;SDS011;557;48.466;7.950;2023-08-24T12:48:00;25.35;;;23.92;;
1136;SDS011;557;48.466;7.950;2023-08-24T12:50:47;25.75;;;23.90;;
1136;SDS011;557;48.466;7.950;2023-08-24T12:53:35;24.27;;;22.77;;
1136;SDS011;557;48.466;7.950;2023-08-24T12:56:22;25.45;;;23.67;;
1136;SDS011;557;48.466;7.950;2023-08-24T12:59:10;24.50;;;23.00;;
1136;SDS011;557;48.466;7.950;2023-08-24T13:01:58;24.83;;;23.17;;
1136;SDS011;557;48.466;7.950;2023-08-24T13:04:45;24.33;;;22.65;;
1136;SDS011;557;48.466;7.950;2023-08-24T13:07:32;24.73;;;23.10;;
1136;SDS011;557;48.466;7.950;2023-08-24T13:10:20;25.10;;;23.63;;
1136;SDS011;557;48.466;7.950;2023-08-24T13:13:07;24.33;;;22.92;;
1136;SDS011;557;48.466;7.950;2023-08-24T13:15:56;25.35;;;23.70;;
1136;SDS011;557;48.466;7.950;2023-08-24T13:18:43;25.35;;;23.65;;
1136;SDS011;557;48.466;7.950;2023-08-24T13:21:30;24.40;;;23.00;;
1136;SDS011;557;48.466;7.950;2023-08-24T13:24:17;24.67;;;23.25;;
1136;SDS011;557;48.466;7.950;2023-08-24T13:27:05;24.33;;;22.88;;
1136;SDS011;557;48.466;7.950;2023-08-24T13:29:56;23.67;;;22.27;;
1136;SDS011;557;48.466;7.950;2023-08-24T13:32:47;26.08;;;24.52;;
1136;SDS011;557;48.466;7.950;2023-08-24T13:35:34;25.63;;;24.00;;
1136;SDS011;557;48.466;7.950;2023-08-24T13:38:22;24.90;;;23.40;;
1136;SDS011;557;48.466;7.950;2023-08-24T13:41:09;26.27;;;24.65;;
1136;SDS011;557;48.466;7.950;2023-08-24T13:43:56;25.85;;;24.27;;
1136;SDS011;557;48.466;7.950;2023-08-24T13:46:43;24.42;;;23.08;;
1136;SDS011;557;48.466;7.950;2023-08-24T13:49:32;25.45;;;23.75;;
1136;SDS011;557;48.466;7.950;2023-08-24T13:52:19;25.02;;;23.27;;
1136;SDS011;557;48.466;7.950;2023-08-24T13:55:07;23.33;;;21.83;;
1136;SDS011;557;48.466;7.950;2023-08-24T13:57:54;23.45;;;21.95;;
1136;SDS011;557;48.466;7.950;2023-08-24T14:00:42;23.98;;;22.58;;
1136;SDS011;557;48.466;7.950;2023-08-24T14:03:30;23.10;;;21.52;;
1136;SDS011;557;48.466;7.950;2023-08-24T14:06:19;24.27;;;22.77;;
1136;SDS011;557;48.466;7.950;2023-08-24T14:09:06;23.80;;;22.20;;
1136;SDS011;557;48.466;7.950;2023-08-24T14:11:53;22.88;;;21.50;;
1136;SDS011;557;48.466;7.950;2023-08-24T14:14:40;24.63;;;22.85;;
1136;SDS011;557;48.466;7.950;2023-08-24T14:17:28;24.13;;;22.63;;
1136;SDS011;557;48.466;7.950;2023-08-24T14:20:15;25.67;;;23.55;;
1136;SDS011;557;48.466;7.950;2023-08-24T14:23:04;24.90;;;23.38;;
1136;SDS011;557;48.466;7.950;2023-08-24T14:25:51;22.77;;;21.42;;
1136;SDS011;557;48.466;7.950;2023-08-24T14:28:48;23.25;;;21.60;;
1136;SDS011;557;48.466;7.950;2023-08-24T14:31:36;24.80;;;23.20;;
1136;SDS011;557;48.466;7.950;2023-08-24T14:34:23;24.17;;;22.33;;
1136;SDS011;557;48.466;7.950;2023-08-24T14:37:10;22.85;;;21.50;;
1136;SDS011;557;48.466;7.950;2023-08-24T14:39:59;22.30;;;20.90;;
1136;SDS011;557;48.466;7.950;2023-08-24T14:42:46;23.60;;;21.90;;
1136;SDS011;557;48.466;7.950;2023-08-24T14:45:34;23.35;;;21.65;;
1136;SDS011;557;48.466;7.950;2023-08-24T14:48:21;21.80;;;20.17;;
1136;SDS011;557;48.466;7.950;2023-08-24T14:51:09;21.45;;;20.15;;
1136;SDS011;557;48.466;7.950;2023-08-24T14:53:56;21.25;;;19.65;;
1136;SDS011;557;48.466;7.950;2023-08-24T14:56:45;21.98;;;20.48;;
1136;SDS011;557;48.466;7.950;2023-08-24T14:59:32;22.58;;;20.58;;
1136;SDS011;557;48.466;7.950;2023-08-24T15:02:19;22.08;;;20.48;;
1136;SDS011;557;48.466;7.950;2023-08-24T15:05:07;21.38;;;19.70;;
1136;SDS011;557;48.466;7.950;2023-08-24T15:07:54;20.75;;;19.05;;
1136;SDS011;557;48.466;7.950;2023-08-24T15:10:42;19.52;;;18.25;;
1136;SDS011;557;48.466;7.950;2023-08-24T15:13:30;19.75;;;18.55;;
1136;SDS011;557;48.466;7.950;2023-08-24T15:16:17;20.65;;;19.17;;
1136;SDS011;557;48.466;7.950;2023-08-24T15:19:05;19.90;;;18.63;;
1136;SDS011;557;48.466;7.950;2023-08-24T15:21:52;20.17;;;18.98;;
1136;SDS011;557;48.466;7.950;2023-08-24T15:24:39;20.60;;;19.20;;
1136;SDS011;557;48.466;7.950;2023-08-24T15:27:27;20.35;;;19.15;;
1136;SDS011;557;48.466;7.950;2023-08-24T15:30:16;21.35;;;19.63;;
1136;SDS011;557;48.466;7.950;2023-08-24T15:33:04;20.00;;;18.65;;
1136;SDS011;557;48.466;7.950;2023-08-24T15:35:51;20.90;;;19.52;;
1136;SDS011;557;48.466;7.950;2023-08-24T15:38:38;20.90;;;19.52;;
1136;SDS011;557;48.466;7.950;2023-08-24T15:41:25;20.70;;;19.30;;
1136;SDS011;557;48.466;7.950;2023-08-24T15:44:13;20.92;;;19.52;;
1136;SDS011;557;48.466;7.950;2023-08-24T15:47:01;21.27;;;19.92;;
1136;SDS011;557;48.466;7.950;2023-08-24T15:49:49;20.83;;;19.40;;
1136;SDS011;557;48.466;7.950;2023-08-24T15:52:36;20.42;;;19.20;;
1136;SDS011;557;48.466;7.950;2023-08-24T15:55:24;21.25;;;19.85;;
1136;SDS011;557;48.466;7.950;2023-08-24T15:58:14;20.30;;;19.05;;
1136;SDS011;557;48.466;7.950;2023-08-24T16:01:01;22.30;;;20.80;;
1136;SDS011;557;48.466;7.950;2023-08-24T16:03:51;27.60;;;24.85;;
1136;SDS011;557;48.466;7.950;2023-08-24T16:06:38;22.10;;;20.17;;
1136;SDS011;557;48.466;7.950;2023-08-24T16:09:26;26.13;;;23.88;;
1136;SDS011;557;48.466;7.950;2023-08-24T16:12:13;66.15;;;44.20;;
1136;SDS011;557;48.466;7.950;2023-08-24T16:15:00;23.35;;;21.75;;
1136;SDS011;557;48.466;7.950;2023-08-24T16:17:48;22.33;;;20.73;;
1136;SDS011;557;48.466;7.950;2023-08-24T16:20:37;23.05;;;21.27;;
1136;SDS011;557;48.466;7.950;2023-08-24T16:23:24;22.23;;;20.63;;
1136;SDS011;557;48.466;7.950;2023-08-24T16:26:13;21.23;;;19.83;;
1136;SDS011;557;48.466;7.950;2023-08-24T16:29:01;20.92;;;19.60;;
1136;SDS011;557;48.466;7.950;2023-08-24T16:31:48;20.15;;;18.80;;
1136;SDS011;557;48.466;7.950;2023-08-24T16:34:35;20.40;;;18.98;;
1136;SDS011;557;48.466;7.950;2023-08-24T16:37:25;19.08;;;17.70;;
1136;SDS011;557;48.466;7.950;2023-08-24T16:40:12;19.85;;;18.35;;
1136;SDS011;557;48.466;7.950;2023-08-24T16:42:59;19.13;;;17.40;;
1136;SDS011;557;48.466;7.950;2023-08-24T16:45:47;20.30;;;18.77;;
1136;SDS011;557;48.466;7.950;2023-08-24T16:48:34;19.15;;;17.75;;
1136;SDS011;557;48.466;7.950;2023-08-24T16:51:21;18.95;;;17.42;;
1136;SDS011;557;48.466;7.950;2023-08-24T16:54:10;18.95;;;17.55;;
1136;SDS011;557;48.466;7.950;2023-08-24T16:56:57;18.13;;;16.88;;
1136;SDS011;557;48.466;7.950;2023-08-24T16:59:44;18.60;;;16.95;;
1136;SDS011;557;48.466;7.950;2023-08-24T17:02:32;18.15;;;16.73;;
1136;SDS011;557;48.466;7.950;2023-08-24T17:05:19;17.48;;;16.02;;
1136;SDS011;557;48.466;7.950;2023-08-24T17:08:07;17.88;;;16.67;;
1136;SDS011;557;48.466;7.950;2023-08-24T17:10:56;18.52;;;17.02;;
1136;SDS011;557;48.466;7.950;2023-08-24T17:13:43;17.95;;;16.52;;